sensor_id;sensor_type;location;lat;lon;timestamp;temperature;humidity
19888;DHT22;10106;51.332;12.336;2022-11-04T00:01:56;8.90;99.90
19888;DHT22;10106;51.332;12.336;2022-11-04T00:04:24;9.00;99.90
19888;DHT22;10106;51.332;12.336;2022-11-04T00:06:51;9.00;99.90
19888;DHT22;10106;51.332;12.336;2022-11-04T00:09:22;9.00;99.90
19888;DHT22;10106;51.332;12.336;2022-11-04T00:11:48;9.00;99.90
19888;DHT22;10106;51.332;12.336;2022-11-04T00:14:33;9.00;99.90
19888;DHT22;10106;51.332;12.336;2022-11-04T00:16:59;9.10;99.90
19888;DHT22;10106;51.332;12.336;2022-11-04T00:19:44;9.10;99.90
19888;DHT22;10106;51.332;12.336;2022-11-04T00:22:29;9.10;99.90
19888;DHT22;10106;51.332;12.336;2022-11-04T00:25:13;9.20;99.90
19888;DHT22;10106;51.332;12.336;2022-11-04T00:28:19;9.20;99.90
19888;DHT22;10106;51.332;12.336;2022-11-04T00:31:06;9.20;99.90
19888;DHT22;10106;51.332;12.336;2022-11-04T00:33:52;9.30;99.90
19888;DHT22;10106;51.332;12.336;2022-11-04T00:36:18;9.30;99.90
19888;DHT22;10106;51.332;12.336;2022-11-04T00:38:44;9.40;99.90
19888;DHT22;10106;51.332;12.336;2022-11-04T00:41:09;9.50;99.90
19888;DHT22;10106;51.332;12.336;2022-11-04T00:44:03;9.50;99.90
19888;DHT22;10106;51.332;12.336;2022-11-04T00:46:30;9.60;99.90
19888;DHT22;10106;51.332;12.336;2022-11-04T00:48:56;9.70;99.90
19888;DHT22;10106;51.332;12.336;2022-11-04T00:51:22;9.80;99.90
19888;DHT22;10106;51.332;12.336;2022-11-04T00:53:49;9.80;99.90
19888;DHT22;10106;51.332;12.336;2022-11-04T00:56:14;9.90;99.90
19888;DHT22;10106;51.332;12.336;2022-11-04T00:58:40;9.90;99.90
19888;DHT22;10106;51.332;12.336;2022-11-04T01:01:07;10.00;99.90
19888;DHT22;10106;51.332;12.336;2022-11-04T01:03:33;10.00;99.90
19888;DHT22;10106;51.332;12.336;2022-11-04T01:05:59;10.00;99.90
19888;DHT22;10106;51.332;12.336;2022-11-04T01:08:24;9.90;99.90
19888;DHT22;10106;51.332;12.336;2022-11-04T01:10:50;9.90;99.90
19888;DHT22;10106;51.332;12.336;2022-11-04T01:13:15;9.90;99.90
19888;DHT22;10106;51.332;12.336;2022-11-04T01:15:41;9.90;99.90
19888;DHT22;10106;51.332;12.336;2022-11-04T01:18:07;9.90;99.90
19888;DHT22;10106;51.332;12.336;2022-11-04T01:20:32;9.90;99.90
19888;DHT22;10106;51.332;12.336;2022-11-04T01:22:58;9.90;99.90
19888;DHT22;10106;51.332;12.336;2022-11-04T01:25:24;9.90;99.90
19888;DHT22;10106;51.332;12.336;2022-11-04T01:27:50;9.90;99.90
19888;DHT22;10106;51.332;12.336;2022-11-04T01:30:15;9.90;99.90
19888;DHT22;10106;51.332;12.336;2022-11-04T01:32:41;9.90;99.90
19888;DHT22;10106;51.332;12.336;2022-11-04T01:35:07;9.90;99.90
19888;DHT22;10106;51.332;12.336;2022-11-04T01:37:33;9.90;99.90
19888;DHT22;10106;51.332;12.336;2022-11-04T01:39:59;9.90;99.90
19888;DHT22;10106;51.332;12.336;2022-11-04T01:42:24;9.90;99.90
19888;DHT22;10106;51.332;12.336;2022-11-04T01:44:58;10.00;99.90
19888;DHT22;10106;51.332;12.336;2022-11-04T01:47:33;9.90;99.90
19888;DHT22;10106;51.332;12.336;2022-11-04T01:50:22;10.00;99.90
19888;DHT22;10106;51.332;12.336;2022-11-04T01:52:57;9.90;99.90
19888;DHT22;10106;51.332;12.336;2022-11-04T01:55:28;9.90;99.90
19888;DHT22;10106;51.332;12.336;2022-11-04T01:58:02;9.90;99.90
19888;DHT22;10106;51.332;12.336;2022-11-04T02:00:28;9.90;99.90
19888;DHT22;10106;51.332;12.336;2022-11-04T02:03:08;9.90;99.90
19888;DHT22;10106;51.332;12.336;2022-11-04T02:05:36;9.90;99.90
19888;DHT22;10106;51.332;12.336;2022-11-04T02:08:04;9.90;99.90
19888;DHT22;10106;51.332;12.336;2022-11-04T02:10:31;9.90;99.90
19888;DHT22;10106;51.332;12.336;2022-11-04T02:12:59;9.90;99.90
19888;DHT22;10106;51.332;12.336;2022-11-04T02:15:32;10.00;99.90
19888;DHT22;10106;51.332;12.336;2022-11-04T02:18:17;9.90;99.90
19888;DHT22;10106;51.332;12.336;2022-11-04T02:32:02;10.00;99.90
19888;DHT22;10106;51.332;12.336;2022-11-04T02:40:19;10.00;99.90
19888;DHT22;10106;51.332;12.336;2022-11-04T02:43:06;10.00;99.90
19888;DHT22;10106;51.332;12.336;2022-11-04T02:48:40;10.00;99.90
19888;DHT22;10106;51.332;12.336;2022-11-04T02:51:29;10.00;99.90
19888;DHT22;10106;51.332;12.336;2022-11-04T02:54:11;10.00;99.90
19888;DHT22;10106;51.332;12.336;2022-11-04T02:56:42;10.00;99.90
19888;DHT22;10106;51.332;12.336;2022-11-04T02:59:16;10.00;99.90
19888;DHT22;10106;51.332;12.336;2022-11-04T03:01:45;10.00;99.90
19888;DHT22;10106;51.332;12.336;2022-11-04T03:04:20;10.00;99.90
19888;DHT22;10106;51.332;12.336;2022-11-04T03:06:48;10.00;99.90
19888;DHT22;10106;51.332;12.336;2022-11-04T03:09:15;10.00;99.90
19888;DHT22;10106;51.332;12.336;2022-11-04T03:11:45;9.90;99.90
19888;DHT22;10106;51.332;12.336;2022-11-04T03:14:18;9.90;99.90
19888;DHT22;10106;51.332;12.336;2022-11-04T03:16:53;10.00;99.90
19888;DHT22;10106;51.332;12.336;2022-11-04T03:24:27;10.10;99.90
19888;DHT22;10106;51.332;12.336;2022-11-04T03:27:07;10.10;99.90
19888;DHT22;10106;51.332;12.336;2022-11-04T03:29:55;10.20;99.90
19888;DHT22;10106;51.332;12.336;2022-11-04T03:34:54;10.20;99.90
19888;DHT22;10106;51.332;12.336;2022-11-04T03:37:20;10.20;99.90
19888;DHT22;10106;51.332;12.336;2022-11-04T03:39:46;10.30;99.90
19888;DHT22;10106;51.332;12.336;2022-11-04T03:42:13;10.30;99.90
19888;DHT22;10106;51.332;12.336;2022-11-04T03:44:51;10.30;99.90
19888;DHT22;10106;51.332;12.336;2022-11-04T03:47:22;10.30;99.90
19888;DHT22;10106;51.332;12.336;2022-11-04T03:50:09;10.30;99.90
19888;DHT22;10106;51.332;12.336;2022-11-04T03:52:36;10.30;99.90
19888;DHT22;10106;51.332;12.336;2022-11-04T03:55:03;10.30;99.90
19888;DHT22;10106;51.332;12.336;2022-11-04T03:57:45;10.30;99.90
19888;DHT22;10106;51.332;12.336;2022-11-04T04:00:17;10.30;99.90
19888;DHT22;10106;51.332;12.336;2022-11-04T04:03:39;10.30;99.90
19888;DHT22;10106;51.332;12.336;2022-11-04T04:05:58;10.30;99.90
19888;DHT22;10106;51.332;12.336;2022-11-04T04:08:55;10.30;99.90
19888;DHT22;10106;51.332;12.336;2022-11-04T04:14:22;10.30;99.90
19888;DHT22;10106;51.332;12.336;2022-11-04T04:20:22;10.40;99.90
19888;DHT22;10106;51.332;12.336;2022-11-04T04:22:51;10.40;99.90
19888;DHT22;10106;51.332;12.336;2022-11-04T04:25:18;10.40;99.90
19888;DHT22;10106;51.332;12.336;2022-11-04T04:28:03;10.40;99.90
19888;DHT22;10106;51.332;12.336;2022-11-04T04:30:30;10.50;99.90
19888;DHT22;10106;51.332;12.336;2022-11-04T04:33:04;10.50;99.90
19888;DHT22;10106;51.332;12.336;2022-11-04T04:35:40;10.50;99.90
19888;DHT22;10106;51.332;12.336;2022-11-04T04:38:18;10.50;99.90
19888;DHT22;10106;51.332;12.336;2022-11-04T04:44:24;10.60;99.90
19888;DHT22;10106;51.332;12.336;2022-11-04T04:47:11;10.60;99.90
19888;DHT22;10106;51.332;12.336;2022-11-04T04:49:55;10.60;99.90
19888;DHT22;10106;51.332;12.336;2022-11-04T04:52:22;10.60;99.90
19888;DHT22;10106;51.332;12.336;2022-11-04T04:54:48;10.60;99.90
19888;DHT22;10106;51.332;12.336;2022-11-04T04:57:14;10.60;99.90
19888;DHT22;10106;51.332;12.336;2022-11-04T04:59:40;10.60;99.90
19888;DHT22;10106;51.332;12.336;2022-11-04T05:02:05;10.60;99.90
19888;DHT22;10106;51.332;12.336;2022-11-04T05:04:31;10.60;99.90
19888;DHT22;10106;51.332;12.336;2022-11-04T05:06:56;10.60;99.90
19888;DHT22;10106;51.332;12.336;2022-11-04T05:09:22;10.60;99.90
19888;DHT22;10106;51.332;12.336;2022-11-04T05:11:47;10.50;99.90
19888;DHT22;10106;51.332;12.336;2022-11-04T05:14:13;10.50;99.90
19888;DHT22;10106;51.332;12.336;2022-11-04T05:16:40;10.50;99.90
19888;DHT22;10106;51.332;12.336;2022-11-04T05:19:05;10.50;99.90
19888;DHT22;10106;51.332;12.336;2022-11-04T05:21:31;10.60;99.90
19888;DHT22;10106;51.332;12.336;2022-11-04T05:23:57;10.60;99.90
19888;DHT22;10106;51.332;12.336;2022-11-04T05:26:22;10.60;99.90
19888;DHT22;10106;51.332;12.336;2022-11-04T05:28:48;10.60;99.90
19888;DHT22;10106;51.332;12.336;2022-11-04T05:31:14;10.60;99.90
19888;DHT22;10106;51.332;12.336;2022-11-04T05:33:39;10.60;99.90
19888;DHT22;10106;51.332;12.336;2022-11-04T05:36:10;10.60;99.90
19888;DHT22;10106;51.332;12.336;2022-11-04T05:38:35;10.60;99.90
19888;DHT22;10106;51.332;12.336;2022-11-04T05:41:03;10.60;99.90
19888;DHT22;10106;51.332;12.336;2022-11-04T05:43:28;10.60;99.90
19888;DHT22;10106;51.332;12.336;2022-11-04T05:45:54;10.60;99.90
19888;DHT22;10106;51.332;12.336;2022-11-04T05:48:20;10.60;99.90
19888;DHT22;10106;51.332;12.336;2022-11-04T05:50:45;10.60;99.90
19888;DHT22;10106;51.332;12.336;2022-11-04T05:53:11;10.60;99.90
19888;DHT22;10106;51.332;12.336;2022-11-04T05:55:36;10.60;99.90
19888;DHT22;10106;51.332;12.336;2022-11-04T05:58:02;10.60;99.90
19888;DHT22;10106;51.332;12.336;2022-11-04T06:05:38;10.60;99.90
19888;DHT22;10106;51.332;12.336;2022-11-04T06:08:04;10.70;99.90
19888;DHT22;10106;51.332;12.336;2022-11-04T06:10:29;10.70;99.90
19888;DHT22;10106;51.332;12.336;2022-11-04T06:12:56;10.70;99.90
19888;DHT22;10106;51.332;12.336;2022-11-04T06:15:22;10.60;99.90
19888;DHT22;10106;51.332;12.336;2022-11-04T06:17:47;10.60;99.90
19888;DHT22;10106;51.332;12.336;2022-11-04T06:20:13;10.70;99.90
19888;DHT22;10106;51.332;12.336;2022-11-04T06:22:38;10.70;99.90
19888;DHT22;10106;51.332;12.336;2022-11-04T06:25:04;10.60;99.90
19888;DHT22;10106;51.332;12.336;2022-11-04T06:27:30;10.70;99.90
19888;DHT22;10106;51.332;12.336;2022-11-04T06:29:55;10.70;99.90
19888;DHT22;10106;51.332;12.336;2022-11-04T06:32:21;10.70;99.90
19888;DHT22;10106;51.332;12.336;2022-11-04T06:34:46;10.60;99.90
19888;DHT22;10106;51.332;12.336;2022-11-04T06:37:12;10.60;99.90
19888;DHT22;10106;51.332;12.336;2022-11-04T06:39:38;10.60;99.90
19888;DHT22;10106;51.332;12.336;2022-11-04T06:42:04;10.60;99.90
19888;DHT22;10106;51.332;12.336;2022-11-04T06:44:30;10.60;99.90
19888;DHT22;10106;51.332;12.336;2022-11-04T06:46:56;10.60;99.90
19888;DHT22;10106;51.332;12.336;2022-11-04T06:49:21;10.70;99.90
19888;DHT22;10106;51.332;12.336;2022-11-04T06:51:48;10.70;99.90
19888;DHT22;10106;51.332;12.336;2022-11-04T06:54:15;10.70;99.90
19888;DHT22;10106;51.332;12.336;2022-11-04T06:56:41;10.70;99.90
19888;DHT22;10106;51.332;12.336;2022-11-04T06:59:17;10.80;99.90
19888;DHT22;10106;51.332;12.336;2022-11-04T07:01:44;10.90;99.90
19888;DHT22;10106;51.332;12.336;2022-11-04T07:04:09;11.00;99.90
19888;DHT22;10106;51.332;12.336;2022-11-04T07:06:35;11.10;99.90
19888;DHT22;10106;51.332;12.336;2022-11-04T07:09:02;11.10;99.90
19888;DHT22;10106;51.332;12.336;2022-11-04T07:11:30;11.10;99.90
19888;DHT22;10106;51.332;12.336;2022-11-04T07:13:57;11.10;99.90
19888;DHT22;10106;51.332;12.336;2022-11-04T07:16:23;11.00;99.90
19888;DHT22;10106;51.332;12.336;2022-11-04T07:18:48;11.00;99.90
19888;DHT22;10106;51.332;12.336;2022-11-04T07:21:16;11.00;99.90
19888;DHT22;10106;51.332;12.336;2022-11-04T07:23:41;10.90;99.90
19888;DHT22;10106;51.332;12.336;2022-11-04T07:26:09;10.90;99.90
19888;DHT22;10106;51.332;12.336;2022-11-04T07:28:35;10.80;99.90
19888;DHT22;10106;51.332;12.336;2022-11-04T07:31:02;10.80;99.90
19888;DHT22;10106;51.332;12.336;2022-11-04T07:33:28;10.80;99.90
19888;DHT22;10106;51.332;12.336;2022-11-04T07:35:54;10.80;99.90
19888;DHT22;10106;51.332;12.336;2022-11-04T07:38:20;10.80;99.90
19888;DHT22;10106;51.332;12.336;2022-11-04T07:40:46;10.80;99.90
19888;DHT22;10106;51.332;12.336;2022-11-04T07:43:12;10.80;99.90
19888;DHT22;10106;51.332;12.336;2022-11-04T07:45:38;10.80;99.90
19888;DHT22;10106;51.332;12.336;2022-11-04T07:48:04;10.80;99.90
19888;DHT22;10106;51.332;12.336;2022-11-04T07:50:30;10.80;99.90
19888;DHT22;10106;51.332;12.336;2022-11-04T07:52:55;10.80;99.90
19888;DHT22;10106;51.332;12.336;2022-11-04T07:55:21;10.80;99.90
19888;DHT22;10106;51.332;12.336;2022-11-04T07:57:47;10.90;99.90
19888;DHT22;10106;51.332;12.336;2022-11-04T08:00:16;10.90;99.90
19888;DHT22;10106;51.332;12.336;2022-11-04T08:05:27;11.00;99.90
19888;DHT22;10106;51.332;12.336;2022-11-04T08:07:53;11.00;99.90
19888;DHT22;10106;51.332;12.336;2022-11-04T08:10:18;11.00;99.90
19888;DHT22;10106;51.332;12.336;2022-11-04T08:12:44;11.00;99.90
19888;DHT22;10106;51.332;12.336;2022-11-04T08:15:09;11.00;99.90
19888;DHT22;10106;51.332;12.336;2022-11-04T08:17:35;11.10;99.90
19888;DHT22;10106;51.332;12.336;2022-11-04T08:20:00;11.10;99.90
19888;DHT22;10106;51.332;12.336;2022-11-04T08:22:26;11.10;99.90
19888;DHT22;10106;51.332;12.336;2022-11-04T08:24:52;11.10;99.90
19888;DHT22;10106;51.332;12.336;2022-11-04T08:27:17;11.10;99.90
19888;DHT22;10106;51.332;12.336;2022-11-04T08:29:43;11.10;99.90
19888;DHT22;10106;51.332;12.336;2022-11-04T08:32:09;11.10;99.90
19888;DHT22;10106;51.332;12.336;2022-11-04T08:34:34;11.10;99.90
19888;DHT22;10106;51.332;12.336;2022-11-04T08:37:00;11.10;99.90
19888;DHT22;10106;51.332;12.336;2022-11-04T08:39:26;11.20;99.90
19888;DHT22;10106;51.332;12.336;2022-11-04T08:41:51;11.20;99.90
19888;DHT22;10106;51.332;12.336;2022-11-04T08:44:19;11.20;99.90
19888;DHT22;10106;51.332;12.336;2022-11-04T08:46:45;11.20;99.90
19888;DHT22;10106;51.332;12.336;2022-11-04T08:49:11;11.30;99.90
19888;DHT22;10106;51.332;12.336;2022-11-04T08:51:40;11.30;99.90
19888;DHT22;10106;51.332;12.336;2022-11-04T08:54:06;11.40;99.90
19888;DHT22;10106;51.332;12.336;2022-11-04T08:56:35;11.40;99.90
19888;DHT22;10106;51.332;12.336;2022-11-04T08:59:01;11.50;99.90
19888;DHT22;10106;51.332;12.336;2022-11-04T09:01:30;11.60;99.90
19888;DHT22;10106;51.332;12.336;2022-11-04T09:03:55;11.70;99.90
19888;DHT22;10106;51.332;12.336;2022-11-04T09:06:25;11.80;99.90
19888;DHT22;10106;51.332;12.336;2022-11-04T09:08:51;11.90;99.90
19888;DHT22;10106;51.332;12.336;2022-11-04T09:11:19;12.20;99.90
19888;DHT22;10106;51.332;12.336;2022-11-04T09:13:45;12.40;99.90
19888;DHT22;10106;51.332;12.336;2022-11-04T09:16:12;12.40;99.90
19888;DHT22;10106;51.332;12.336;2022-11-04T09:18:38;12.50;99.90
19888;DHT22;10106;51.332;12.336;2022-11-04T09:21:05;12.40;99.90
19888;DHT22;10106;51.332;12.336;2022-11-04T09:23:31;12.50;99.90
19888;DHT22;10106;51.332;12.336;2022-11-04T09:26:03;12.50;99.90
19888;DHT22;10106;51.332;12.336;2022-11-04T09:28:29;12.40;99.90
19888;DHT22;10106;51.332;12.336;2022-11-04T09:30:57;12.40;99.90
19888;DHT22;10106;51.332;12.336;2022-11-04T09:33:23;12.30;99.90
19888;DHT22;10106;51.332;12.336;2022-11-04T09:35:55;12.20;99.90
19888;DHT22;10106;51.332;12.336;2022-11-04T09:38:22;12.10;99.90
19888;DHT22;10106;51.332;12.336;2022-11-04T09:40:48;12.10;99.90
19888;DHT22;10106;51.332;12.336;2022-11-04T09:45:57;11.90;99.90
19888;DHT22;10106;51.332;12.336;2022-11-04T09:48:46;11.80;99.90
19888;DHT22;10106;51.332;12.336;2022-11-04T09:51:13;11.80;99.90
19888;DHT22;10106;51.332;12.336;2022-11-04T09:53:48;11.70;99.90
19888;DHT22;10106;51.332;12.336;2022-11-04T09:56:33;11.60;99.90
19888;DHT22;10106;51.332;12.336;2022-11-04T09:59:02;11.60;99.90
19888;DHT22;10106;51.332;12.336;2022-11-04T10:02:39;11.60;99.90
19888;DHT22;10106;51.332;12.336;2022-11-04T10:10:29;11.50;99.90
19888;DHT22;10106;51.332;12.336;2022-11-04T10:18:23;11.50;99.90
19888;DHT22;10106;51.332;12.336;2022-11-04T10:24:06;11.50;99.90
19888;DHT22;10106;51.332;12.336;2022-11-04T10:29:15;11.40;99.90
19888;DHT22;10106;51.332;12.336;2022-11-04T10:31:43;11.40;99.90
19888;DHT22;10106;51.332;12.336;2022-11-04T10:34:20;11.40;99.90
19888;DHT22;10106;51.332;12.336;2022-11-04T10:36:48;11.30;99.90
19888;DHT22;10106;51.332;12.336;2022-11-04T10:39:34;11.30;99.90
19888;DHT22;10106;51.332;12.336;2022-11-04T10:42:02;11.20;99.90
19888;DHT22;10106;51.332;12.336;2022-11-04T10:44:32;11.10;99.90
19888;DHT22;10106;51.332;12.336;2022-11-04T10:49:43;11.10;99.90
19888;DHT22;10106;51.332;12.336;2022-11-04T10:52:12;11.00;99.90
19888;DHT22;10106;51.332;12.336;2022-11-04T10:54:47;11.00;99.90
19888;DHT22;10106;51.332;12.336;2022-11-04T10:57:23;11.00;99.90
19888;DHT22;10106;51.332;12.336;2022-11-04T11:00:00;11.00;99.90
19888;DHT22;10106;51.332;12.336;2022-11-04T11:07:43;10.90;99.90
19888;DHT22;10106;51.332;12.336;2022-11-04T11:10:22;10.90;99.90
19888;DHT22;10106;51.332;12.336;2022-11-04T11:13:22;11.00;99.90
19888;DHT22;10106;51.332;12.336;2022-11-04T11:15:48;10.90;99.90
19888;DHT22;10106;51.332;12.336;2022-11-04T11:18:17;10.90;99.90
19888;DHT22;10106;51.332;12.336;2022-11-04T11:26:01;10.90;99.90
19888;DHT22;10106;51.332;12.336;2022-11-04T11:28:28;10.90;99.90
19888;DHT22;10106;51.332;12.336;2022-11-04T11:30:59;10.90;99.90
19888;DHT22;10106;51.332;12.336;2022-11-04T11:33:35;10.80;99.90
19888;DHT22;10106;51.332;12.336;2022-11-04T11:36:08;10.90;99.90
19888;DHT22;10106;51.332;12.336;2022-11-04T11:41:16;10.90;99.90
19888;DHT22;10106;51.332;12.336;2022-11-04T11:43:49;10.80;99.90
19888;DHT22;10106;51.332;12.336;2022-11-04T11:46:21;10.80;99.90
19888;DHT22;10106;51.332;12.336;2022-11-04T11:48:55;10.80;99.90
19888;DHT22;10106;51.332;12.336;2022-11-04T11:51:37;10.80;99.90
19888;DHT22;10106;51.332;12.336;2022-11-04T11:54:34;10.80;99.90
19888;DHT22;10106;51.332;12.336;2022-11-04T11:57:21;10.80;99.90
19888;DHT22;10106;51.332;12.336;2022-11-04T12:00:11;10.80;99.90
19888;DHT22;10106;51.332;12.336;2022-11-04T12:05:11;10.80;99.90
19888;DHT22;10106;51.332;12.336;2022-11-04T12:10:23;10.90;99.90
19888;DHT22;10106;51.332;12.336;2022-11-04T12:13:10;10.90;99.90
19888;DHT22;10106;51.332;12.336;2022-11-04T12:18:39;11.00;99.90
19888;DHT22;10106;51.332;12.336;2022-11-04T12:31:44;11.30;99.90
19888;DHT22;10106;51.332;12.336;2022-11-04T12:34:29;11.30;99.90
19888;DHT22;10106;51.332;12.336;2022-11-04T12:37:37;11.40;99.90
19888;DHT22;10106;51.332;12.336;2022-11-04T12:40:10;11.50;99.90
19888;DHT22;10106;51.332;12.336;2022-11-04T12:42:50;11.50;99.90
19888;DHT22;10106;51.332;12.336;2022-11-04T12:48:09;11.60;99.90
19888;DHT22;10106;51.332;12.336;2022-11-04T12:50:58;11.60;99.90
19888;DHT22;10106;51.332;12.336;2022-11-04T12:56:36;11.70;99.90
19888;DHT22;10106;51.332;12.336;2022-11-04T12:59:28;11.60;99.90
19888;DHT22;10106;51.332;12.336;2022-11-04T13:04:58;11.70;99.90
19888;DHT22;10106;51.332;12.336;2022-11-04T13:07:37;11.80;99.90
19888;DHT22;10106;51.332;12.336;2022-11-04T13:10:18;11.80;99.90
19888;DHT22;10106;51.332;12.336;2022-11-04T13:12:47;11.80;99.90
19888;DHT22;10106;51.332;12.336;2022-11-04T13:15:20;11.90;99.90
19888;DHT22;10106;51.332;12.336;2022-11-04T13:17:50;11.90;99.90
19888;DHT22;10106;51.332;12.336;2022-11-04T13:20:26;12.00;99.90
19888;DHT22;10106;51.332;12.336;2022-11-04T13:22:58;12.10;99.90
19888;DHT22;10106;51.332;12.336;2022-11-04T13:27:57;12.00;99.90
19888;DHT22;10106;51.332;12.336;2022-11-04T13:33:20;11.90;99.90
19888;DHT22;10106;51.332;12.336;2022-11-04T13:38:45;11.70;99.90
19888;DHT22;10106;51.332;12.336;2022-11-04T13:44:19;11.60;99.90
19888;DHT22;10106;51.332;12.336;2022-11-04T13:46:50;11.60;99.90
19888;DHT22;10106;51.332;12.336;2022-11-04T13:49:20;11.60;99.90
19888;DHT22;10106;51.332;12.336;2022-11-04T13:54:37;11.50;99.90
19888;DHT22;10106;51.332;12.336;2022-11-04T13:59:34;11.50;99.90
19888;DHT22;10106;51.332;12.336;2022-11-04T14:04:40;11.50;99.90
19888;DHT22;10106;51.332;12.336;2022-11-04T14:07:11;11.50;99.90
19888;DHT22;10106;51.332;12.336;2022-11-04T14:15:09;11.60;99.90
19888;DHT22;10106;51.332;12.336;2022-11-04T14:22:33;11.50;99.90
19888;DHT22;10106;51.332;12.336;2022-11-04T14:27:47;11.40;99.90
19888;DHT22;10106;51.332;12.336;2022-11-04T14:30:33;11.40;99.90
19888;DHT22;10106;51.332;12.336;2022-11-04T14:33:05;11.40;99.90
19888;DHT22;10106;51.332;12.336;2022-11-04T14:35:32;11.50;99.90
19888;DHT22;10106;51.332;12.336;2022-11-04T14:38:04;11.50;99.90
19888;DHT22;10106;51.332;12.336;2022-11-04T14:40:51;11.50;99.90
19888;DHT22;10106;51.332;12.336;2022-11-04T14:43:39;11.40;99.90
19888;DHT22;10106;51.332;12.336;2022-11-04T14:46:06;11.30;99.90
19888;DHT22;10106;51.332;12.336;2022-11-04T14:48:32;11.30;99.90
19888;DHT22;10106;51.332;12.336;2022-11-04T14:50:59;11.30;99.90
19888;DHT22;10106;51.332;12.336;2022-11-04T14:53:30;11.40;99.90
19888;DHT22;10106;51.332;12.336;2022-11-04T14:56:15;11.40;99.90
19888;DHT22;10106;51.332;12.336;2022-11-04T15:01:20;11.20;99.90
19888;DHT22;10106;51.332;12.336;2022-11-04T15:03:47;11.10;99.90
19888;DHT22;10106;51.332;12.336;2022-11-04T15:06:22;11.00;99.90
19888;DHT22;10106;51.332;12.336;2022-11-04T15:08:49;10.90;99.90
19888;DHT22;10106;51.332;12.336;2022-11-04T15:11:20;10.80;99.90
19888;DHT22;10106;51.332;12.336;2022-11-04T15:14:22;10.80;99.90
19888;DHT22;10106;51.332;12.336;2022-11-04T15:16:54;10.80;99.90
19888;DHT22;10106;51.332;12.336;2022-11-04T15:21:53;10.70;99.90
19888;DHT22;10106;51.332;12.336;2022-11-04T15:24:19;10.70;99.90
19888;DHT22;10106;51.332;12.336;2022-11-04T15:26:58;10.70;99.90
19888;DHT22;10106;51.332;12.336;2022-11-04T15:29:25;10.70;99.90
19888;DHT22;10106;51.332;12.336;2022-11-04T15:31:56;10.70;99.90
19888;DHT22;10106;51.332;12.336;2022-11-04T15:34:24;10.70;99.90
19888;DHT22;10106;51.332;12.336;2022-11-04T15:36:52;10.70;99.90
19888;DHT22;10106;51.332;12.336;2022-11-04T15:39:39;10.60;99.90
19888;DHT22;10106;51.332;12.336;2022-11-04T15:42:13;10.50;99.90
19888;DHT22;10106;51.332;12.336;2022-11-04T15:44:57;10.50;99.90
19888;DHT22;10106;51.332;12.336;2022-11-04T15:47:25;10.40;99.90
19888;DHT22;10106;51.332;12.336;2022-11-04T15:49:53;10.40;99.90
19888;DHT22;10106;51.332;12.336;2022-11-04T15:52:26;10.30;99.90
19888;DHT22;10106;51.332;12.336;2022-11-04T15:54:55;10.20;99.90
19888;DHT22;10106;51.332;12.336;2022-11-04T15:57:37;10.20;99.90
19888;DHT22;10106;51.332;12.336;2022-11-04T16:02:50;10.10;99.90
19888;DHT22;10106;51.332;12.336;2022-11-04T16:05:31;10.10;99.90
19888;DHT22;10106;51.332;12.336;2022-11-04T16:08:27;10.10;99.90
19888;DHT22;10106;51.332;12.336;2022-11-04T16:13:39;10.00;99.90
19888;DHT22;10106;51.332;12.336;2022-11-04T16:16:23;10.00;99.90
19888;DHT22;10106;51.332;12.336;2022-11-04T16:18:50;10.00;99.90
19888;DHT22;10106;51.332;12.336;2022-11-04T16:24:35;9.90;99.90
19888;DHT22;10106;51.332;12.336;2022-11-04T16:26:42;10.00;99.90
19888;DHT22;10106;51.332;12.336;2022-11-04T16:29:20;10.00;99.90
19888;DHT22;10106;51.332;12.336;2022-11-04T16:32:07;9.90;99.90
19888;DHT22;10106;51.332;12.336;2022-11-04T16:34:34;10.00;99.90
19888;DHT22;10106;51.332;12.336;2022-11-04T16:37:00;10.00;99.90
19888;DHT22;10106;51.332;12.336;2022-11-04T16:39:26;10.00;99.90
19888;DHT22;10106;51.332;12.336;2022-11-04T16:41:52;10.10;99.90
19888;DHT22;10106;51.332;12.336;2022-11-04T16:44:19;10.20;99.90
19888;DHT22;10106;51.332;12.336;2022-11-04T16:46:46;10.10;99.90
19888;DHT22;10106;51.332;12.336;2022-11-04T16:49:16;10.10;99.90
19888;DHT22;10106;51.332;12.336;2022-11-04T16:51:44;10.00;99.90
19888;DHT22;10106;51.332;12.336;2022-11-04T16:54:10;10.00;99.90
19888;DHT22;10106;51.332;12.336;2022-11-04T16:56:36;10.00;99.90
19888;DHT22;10106;51.332;12.336;2022-11-04T16:59:02;10.00;99.90
19888;DHT22;10106;51.332;12.336;2022-11-04T17:01:28;10.00;99.90
19888;DHT22;10106;51.332;12.336;2022-11-04T17:03:54;10.00;99.90
19888;DHT22;10106;51.332;12.336;2022-11-04T17:06:20;10.00;99.90
19888;DHT22;10106;51.332;12.336;2022-11-04T17:08:46;10.00;99.90
19888;DHT22;10106;51.332;12.336;2022-11-04T17:11:12;10.00;99.90
19888;DHT22;10106;51.332;12.336;2022-11-04T17:13:38;10.00;99.90
19888;DHT22;10106;51.332;12.336;2022-11-04T17:16:05;10.00;99.90
19888;DHT22;10106;51.332;12.336;2022-11-04T17:18:31;10.00;99.90
19888;DHT22;10106;51.332;12.336;2022-11-04T17:20:58;10.00;99.90
19888;DHT22;10106;51.332;12.336;2022-11-04T17:23:25;10.00;99.90
19888;DHT22;10106;51.332;12.336;2022-11-04T17:25:53;10.00;99.90
19888;DHT22;10106;51.332;12.336;2022-11-04T17:28:19;10.00;99.90
19888;DHT22;10106;51.332;12.336;2022-11-04T17:30:45;10.00;99.90
19888;DHT22;10106;51.332;12.336;2022-11-04T17:33:15;10.00;99.90
19888;DHT22;10106;51.332;12.336;2022-11-04T17:35:43;10.00;99.90
19888;DHT22;10106;51.332;12.336;2022-11-04T17:38:10;10.10;99.90
19888;DHT22;10106;51.332;12.336;2022-11-04T17:40:37;10.10;99.90
19888;DHT22;10106;51.332;12.336;2022-11-04T17:43:22;10.10;99.90
19888;DHT22;10106;51.332;12.336;2022-11-04T17:46:07;10.10;99.90
19888;DHT22;10106;51.332;12.336;2022-11-04T17:48:52;10.00;99.90
19888;DHT22;10106;51.332;12.336;2022-11-04T17:51:18;10.00;99.90
19888;DHT22;10106;51.332;12.336;2022-11-04T17:53:43;10.00;99.90
19888;DHT22;10106;51.332;12.336;2022-11-04T17:56:14;10.00;99.90
19888;DHT22;10106;51.332;12.336;2022-11-04T17:58:39;9.90;99.90
19888;DHT22;10106;51.332;12.336;2022-11-04T18:01:06;9.90;99.90
19888;DHT22;10106;51.332;12.336;2022-11-04T18:03:32;9.90;99.90
19888;DHT22;10106;51.332;12.336;2022-11-04T18:05:58;9.80;99.90
19888;DHT22;10106;51.332;12.336;2022-11-04T18:08:24;9.80;99.90
19888;DHT22;10106;51.332;12.336;2022-11-04T18:10:49;9.70;99.90
19888;DHT22;10106;51.332;12.336;2022-11-04T18:13:15;9.70;99.90
19888;DHT22;10106;51.332;12.336;2022-11-04T18:15:40;9.70;99.90